^^
Station Historical Data
Daily Summary for September 4, 2017 Units:  Metric    English   Both
« Previous Day
Next Day »
Daily Weekly Monthly Yearly Custom
  High: Low: Average:
Temperature: 32.6 °C 16 °C 24.1 °C
Dew Point: 0.1 °C -4.1 °C -2.5 °C
Humidity: 26% 11% 18%
Wind Speed: 37km/h 0km/h 7.6km/h
Wind Gust: 41.8km/h - -
Wind- - ENE
Pressure: 1016.1 hPa 1008.7 hPa -
Precipitation: 0 mm    
Historical Graphs
 
 
Tabular Data for September 4, 2017
Time Temperature Dew Point Pressure Wind Wind Speed Wind Gust Humidity Rainfall Rate (Hourly) solar Conditions
00:02 21.8 °C -2.9 °C 1014.4 hPa NNE 3.2 km/h 6.4 km/h 19% 0 mm 0.0 W/m2
00:12 21.6 °C -3 °C 1014.4 hPa NNE 6.4 km/h 11.3 km/h 19% 0 mm 0.0 W/m2
00:17 21.6 °C -3 °C 1014.4 hPa NNE 3.2 km/h 12.9 km/h 19% 0 mm 0.0 W/m2
00:27 21.7 °C -2.9 °C 1014.4 hPa NNE 3.2 km/h 9.7 km/h 19% 0 mm 0.0 W/m2
00:32 21.8 °C -2.9 °C 1014.4 hPa NNE 3.2 km/h 8 km/h 19% 0 mm 0.0 W/m2
00:37 21.7 °C -2.9 °C 1014.4 hPa Calm   12.9 km/h 19% 0 mm 0.0 W/m2
00:42 21.7 °C -2.9 °C 1014.4 hPa NNE 20.9 km/h 20.9 km/h 19% 0 mm 0.0 W/m2
00:52 22.3 °C -3.2 °C 1014.4 hPa Calm   11.3 km/h 18% 0 mm 0.0 W/m2
00:57 22.5 °C -3 °C 1014.4 hPa NNE 6.4 km/h 11.3 km/h 18% 0 mm 0.0 W/m2
01:03 22.7 °C -3.6 °C 1014.4 hPa Calm   11.3 km/h 17% 0 mm 0.0 W/m2
01:08 22.8 °C -3.5 °C 1014.4 hPa NNE 6.4 km/h 12.9 km/h 17% 0 mm 0.0 W/m2
01:13 23.1 °C -3.3 °C 1014.4 hPa NNE 6.4 km/h 17.7 km/h 17% 0 mm 0.0 W/m2
01:18 23.3 °C -3.1 °C 1014.4 hPa NNE 13 km/h 14.5 km/h 17% 0 mm 0.0 W/m2
01:23 23.2 °C -3.2 °C 1014.4 hPa NNE 3.2 km/h 11.3 km/h 17% 0 mm 0.0 W/m2
01:28 22.9 °C -3.5 °C 1014.4 hPa NNE 3.2 km/h 11.3 km/h 17% 0 mm 0.0 W/m2
01:33 22.8 °C -3.5 °C 1014.4 hPa Calm   9.7 km/h 17% 0 mm 0.0 W/m2
01:38 22.5 °C -3.8 °C 1014.4 hPa Calm   9.7 km/h 17% 0 mm 0.0 W/m2
01:48 22.2 °C -3.3 °C 1014.1 hPa NNE 3.2 km/h 9.7 km/h 18% 0 mm 0.0 W/m2
01:58 22 °C -3.4 °C 1014.1 hPa NNE 11.1 km/h 19.3 km/h 18% 0 mm 0.0 W/m2
02:03 21.9 °C -3.5 °C 1014.1 hPa NNE 6.4 km/h 16.1 km/h 18% 0 mm 0.0 W/m2
02:08 21.9 °C -3.5 °C 1014.1 hPa Calm   12.9 km/h 18% 0 mm 0.0 W/m2
02:19 21.8 °C -3.6 °C 1014.1 hPa NNE 9.7 km/h 12.9 km/h 18% 0 mm 0.0 W/m2
02:29 21.7 °C -3.7 °C 1014.1 hPa Calm   9.7 km/h 18% 0 mm 0.0 W/m2
02:34 21.9 °C -3.5 °C 1014.1 hPa NNE 6.4 km/h 9.7 km/h 18% 0 mm 0.0 W/m2
02:39 22 °C -3.4 °C 1014.1 hPa Calm   9.7 km/h 18% 0 mm 0.0 W/m2
02:44 21.9 °C -3.5 °C 1013.8 hPa Calm     18% 0 mm 0.0 W/m2
02:49 21.3 °C -4 °C 1013.8 hPa Calm     18% 0 mm 0.0 W/m2
02:55 20.8 °C -3.7 °C 1013.8 hPa Calm     19% 0 mm 0.0 W/m2
03:00 20.3 °C -3.4 °C 1013.8 hPa Calm     20% 0 mm 0.0 W/m2
03:05 19.9 °C -3.7 °C 1013.8 hPa Calm     20% 0 mm 0.0 W/m2
03:10 19.6 °C -3.3 °C 1013.8 hPa Calm     21% 0 mm 0.0 W/m2
03:16 19.3 °C -3 °C 1013.4 hPa Calm   3.2 km/h 22% 0 mm 0.0 W/m2
03:26 18.9 °C -3.9 °C 1013.4 hPa Calm     21% 0 mm 0.0 W/m2
03:31 18.5 °C -3.6 °C 1013.4 hPa Calm     22% 0 mm 0.0 W/m2
03:37 18.3 °C -3.8 °C 1013.8 hPa Calm     22% 0 mm 0.0 W/m2
03:42 18.2 °C -3.9 °C 1013.8 hPa Calm     22% 0 mm 0.0 W/m2
03:52 17.8 °C -3.6 °C 1013.8 hPa NNE 1.4 km/h 1.6 km/h 23% 0 mm 0.0 W/m2
03:57 17.9 °C -3.5 °C 1013.8 hPa Calm   6.4 km/h 23% 0 mm 0.0 W/m2
04:02 18 °C -3.5 °C 1013.8 hPa Calm     23% 0 mm 0.0 W/m2
04:08 18.1 °C -3.4 °C 1013.8 hPa Calm   6.4 km/h 23% 0 mm 0.0 W/m2
04:13 18.1 °C -3.4 °C 1013.8 hPa Calm   3.2 km/h 23% 0 mm 0.0 W/m2
04:18 18.1 °C -3.4 °C 1014.1 hPa NNE 1.4 km/h 1.6 km/h 23% 0 mm 0.0 W/m2
04:28 18.2 °C -3.9 °C 1013.8 hPa Calm     22% 0 mm 0.0 W/m2
04:33 18.1 °C -3.4 °C 1013.8 hPa Calm     23% 0 mm 0.0 W/m2
04:38 18.1 °C -3.4 °C 1014.1 hPa Calm   1.6 km/h 23% 0 mm 0.0 W/m2
04:53 17.9 °C -3.5 °C 1014.1 hPa Calm     23% 0 mm 0.0 W/m2
05:03 18.3 °C -3.8 °C 1014.1 hPa NNE 1.4 km/h 8 km/h 22% 0 mm 0.0 W/m2
05:09 18.6 °C -3.5 °C 1014.1 hPa NNE 1.4 km/h 14.5 km/h 22% 0 mm 0.0 W/m2
05:19 19.1 °C -3.1 °C 1014.4 hPa NNE 3.2 km/h 11.3 km/h 22% 0 mm 0.0 W/m2
05:34 17.7 °C -3.7 °C 1014.4 hPa NNE 3.2 km/h 8 km/h 23% 0 mm 0.0 W/m2
05:39 17.3 °C -4 °C 1014.4 hPa Calm   8 km/h 23% 0 mm 0.0 W/m2
05:44 17.3 °C -4 °C 1014.4 hPa NNE 7.9 km/h 11.3 km/h 23% 0 mm 0.0 W/m2
05:49 17.2 °C -4.1 °C 1014.4 hPa NNE 14.3 km/h 17.7 km/h 23% 0 mm 0.0 W/m2
05:59 17 °C -3.7 °C 1014.8 hPa NNE 7.9 km/h 16.1 km/h 24% 0 mm 0.0 W/m2
06:05 16.8 °C -3.9 °C 1014.8 hPa NNE 9.7 km/h 14.5 km/h 24% 0 mm 0.0 W/m2
06:09 16.8 °C -3.3 °C 1014.8 hPa NNE 6.4 km/h 16.1 km/h 25% 0 mm 0.0 W/m2
06:14 16.8 °C -3.9 °C 1015.1 hPa NNE 6.4 km/h 16.1 km/h 24% 0 mm 0.0 W/m2
06:20 16.8 °C -3.9 °C 1015.1 hPa NNE 9.7 km/h 12.9 km/h 24% 0 mm 0.0 W/m2
06:25 16.8 °C -3.9 °C 1015.1 hPa NNE 6.4 km/h 14.5 km/h 24% 0 mm 0.0 W/m2
06:30 16.7 °C -3.4 °C 1015.1 hPa NNE 3.2 km/h 14.5 km/h 25% 0 mm 0.0 W/m2
06:35 16.7 °C -3.4 °C 1015.1 hPa NNE 14.3 km/h 16.1 km/h 25% 0 mm 0.0 W/m2
06:45 17.1 °C -3.1 °C 1015.1 hPa NNE 7.9 km/h 16.1 km/h 25% 0 mm 0.0 W/m2
06:55 16.4 °C -3.7 °C 1015.1 hPa NNE 3.2 km/h 14.5 km/h 25% 0 mm 0.0 W/m2
07:05 16 °C -3.5 °C 1015.1 hPa NNE 3.2 km/h 12.9 km/h 26% 0 mm 7.0 W/m2
07:25 16.5 °C -3.6 °C 1015.5 hPa NNE 3.2 km/h 11.3 km/h 25% 0 mm 19.0 W/m2
07:35 16.7 °C -3.4 °C 1015.5 hPa NNE 7.9 km/h 9.7 km/h 25% 0 mm 54.0 W/m2
07:50 16.1 °C -3.9 °C 1015.8 hPa NNE 9.7 km/h 9.7 km/h 25% 0 mm 81.0 W/m2
08:05 17.1 °C -3.1 °C 1015.8 hPa NNE 6.4 km/h 11.3 km/h 25% 0 mm 134.0 W/m2
08:12 18.4 °C -2.5 °C 1015.8 hPa NNE 1.4 km/h 11.3 km/h 24% 0 mm 171.0 W/m2
09:51 24.8 °C -1.1 °C 1016.1 hPa North 17.7 km/h 20.9 km/h 18% 0 mm 383.0 W/m2
10:01 25.3 °C -1.5 °C 1015.8 hPa North 17.7 km/h 32.2 km/h 17% 0 mm 394.0 W/m2
10:06 25.6 °C -1.3 °C 1015.8 hPa North 7.9 km/h 29 km/h 17% 0 mm 399.0 W/m2
10:20 25.9 °C -1 °C 1015.8 hPa North 13 km/h 32.2 km/h 17% 0 mm 545.0 W/m2
10:29 26.4 °C -0.6 °C 1015.8 hPa North 24.1 km/h 30.6 km/h 17% 0 mm 568.0 W/m2
10:40 26.4 °C -0.6 °C 1015.8 hPa North 22.7 km/h 38.6 km/h 17% 0 mm 591.0 W/m2
10:51 26.7 °C -0.4 °C 1015.5 hPa NNW 7.9 km/h 33.8 km/h 17% 0 mm 617.0 W/m2
11:06 27.4 °C -0.6 °C 1015.5 hPa North 14.3 km/h 29 km/h 16% 0 mm 647.0 W/m2
11:13 27.5 °C -0.6 °C 1015.5 hPa North 24.1 km/h 37 km/h 16% 0 mm 663.0 W/m2
11:21 27.4 °C -0.6 °C 1015.1 hPa NNE 16.3 km/h 30.6 km/h 16% 0 mm 671.0 W/m2
11:33 27.5 °C -0.6 °C 1015.1 hPa North 24.1 km/h 35.4 km/h 16% 0 mm 684.0 W/m2
11:41 28.4 °C -0.7 °C 1014.8 hPa NNE 13 km/h 41.8 km/h 15% 0 mm 703.0 W/m2
11:56 28.8 °C -0.4 °C 1014.4 hPa NNE 11.1 km/h 41.8 km/h 15% 0 mm 717.0 W/m2
12:11 29.4 °C 0.1 °C 1014.1 hPa NNW 30.6 km/h 32.2 km/h 15% 0 mm 728.0 W/m2
12:26 29.6 °C -0.7 °C 1013.8 hPa North 11.1 km/h 35.4 km/h 14% 0 mm 740.0 W/m2
12:46 30.1 °C -0.3 °C 1013.4 hPa North 37 km/h 37 km/h 14% 0 mm 742.0 W/m2
12:56 30.2 °C -0.3 °C 1013.1 hPa NNW 11.1 km/h 32.2 km/h 14% 0 mm 747.0 W/m2
13:11 30.4 °C -1.1 °C 1012.4 hPa North 13 km/h 19.3 km/h 13% 0 mm 740.0 W/m2
13:31 30.6 °C -1 °C 1012.1 hPa North 7.9 km/h 40.2 km/h 13% 0 mm 733.0 W/m2
13:36 30.9 °C -0.7 °C 1012.1 hPa NNE 27.4 km/h 41.8 km/h 13% 0 mm 724.0 W/m2
13:52 30.9 °C -0.7 °C 1011.7 hPa North 27.4 km/h 33.8 km/h 13% 0 mm 708.0 W/m2
14:09 31.4 °C -1.4 °C 1011.4 hPa North 32 km/h 32.2 km/h 12% 0 mm 693.0 W/m2
14:21 31.4 °C -1.4 °C 1011.1 hPa North 1.4 km/h 30.6 km/h 12% 0 mm 671.0 W/m2
14:30 31.5 °C -1.3 °C 1010.7 hPa NNW 14.3 km/h 30.6 km/h 12% 0 mm 657.0 W/m2
14:40 31.6 °C -1.3 °C 1010.7 hPa NW 19.5 km/h 37 km/h 12% 0 mm 649.0 W/m2
14:47 31.7 °C -1.2 °C 1010.7 hPa North 6.4 km/h 22.5 km/h 12% 0 mm 622.0 W/m2
14:57 31.8 °C -1.1 °C 1010.4 hPa NE 14.3 km/h 33.8 km/h 12% 0 mm 599.0 W/m2
15:18 32.2 °C -2 °C 1010.4 hPa North 13 km/h 29 km/h 11% 0 mm 564.0 W/m2
15:32 32.2 °C -0.8 °C 1010 hPa Calm   19.3 km/h 12% 0 mm 522.0 W/m2
15:42 32.3 °C -1.9 °C 1010 hPa NW 17.7 km/h 29 km/h 11% 0 mm 494.0 W/m2
15:47 32.3 °C -1.9 °C 1009.7 hPa North 1.4 km/h 19.3 km/h 11% 0 mm 469.0 W/m2
15:59 32.6 °C -1.7 °C 1009.7 hPa North 11.1 km/h 22.5 km/h 11% 0 mm 438.0 W/m2
16:05 32.4 °C -1.8 °C 1009.7 hPa NNW 19.5 km/h 25.7 km/h 11% 0 mm 427.0 W/m2
16:16 32.3 °C -1.9 °C 1009.4 hPa NNW 6.4 km/h 20.9 km/h 11% 0 mm 396.0 W/m2
16:28 32.1 °C -0.9 °C 1009.4 hPa NNE 13 km/h 30.6 km/h 12% 0 mm 364.0 W/m2
16:37 32.1 °C -2.1 °C 1009.4 hPa NNW 6.4 km/h 29 km/h 11% 0 mm 320.0 W/m2
16:58 32.2 °C -2 °C 1009 hPa NNW 22.7 km/h 24.1 km/h 11% 0 mm 272.0 W/m2
17:11 32.1 °C -2.1 °C 1009 hPa NNE 14.3 km/h 20.9 km/h 11% 0 mm 230.0 W/m2
17:21 31.9 °C -2.2 °C 1009 hPa NNE 6.4 km/h 19.3 km/h 11% 0 mm 193.0 W/m2
17:32 31.9 °C -2.2 °C 1009 hPa North 19.5 km/h 22.5 km/h 11% 0 mm 156.0 W/m2
17:42 31.8 °C -1.1 °C 1009 hPa NNE 9.7 km/h 14.5 km/h 12% 0 mm 121.0 W/m2
17:53 31.6 °C -1.3 °C 1009 hPa North 11.1 km/h 19.3 km/h 12% 0 mm 88.0 W/m2
18:06 31.2 °C -1.6 °C 1009 hPa NNE 22.7 km/h 24.1 km/h 12% 0 mm 47.0 W/m2
18:17 30.9 °C -1.8 °C 1008.7 hPa NNE 11.1 km/h 19.3 km/h 12% 0 mm 26.0 W/m2
18:27 30.7 °C -2 °C 1009 hPa NNE 3.2 km/h 16.1 km/h 12% 0 mm 12.0 W/m2
18:33 30.4 °C -2.2 °C 1009 hPa NNE 9.7 km/h 19.3 km/h 12% 0 mm 5.0 W/m2
18:48 30.1 °C -2.4 °C 1008.7 hPa NE 14.3 km/h 19.3 km/h 12% 0 mm 0.0 W/m2
18:57 29.8 °C -1.6 °C 1009 hPa NNE 9.7 km/h 14.5 km/h 13% 0 mm 0.0 W/m2
19:03 29.6 °C -1.7 °C 1009 hPa NNE 9.7 km/h 16.1 km/h 13% 0 mm 0.0 W/m2
19:06 29.6 °C -1.7 °C 1009 hPa NNE 9.7 km/h 16.1 km/h 13% 0 mm 0.0 W/m2
19:13 29.3 °C -2 °C 1009 hPa NNE 7.9 km/h 12.9 km/h 13% 0 mm 0.0 W/m2
19:28 29.1 °C -2.1 °C 1009 hPa Calm   17.7 km/h 13% 0 mm 0.0 W/m2
19:50 28.8 °C -2.4 °C 1009 hPa NNE 6.4 km/h 16.1 km/h 13% 0 mm 0.0 W/m2
19:58 28.5 °C -1.6 °C 1009.4 hPa NNE 7.9 km/h 17.7 km/h 14% 0 mm 0.0 W/m2
20:20 28.1 °C -1.9 °C 1009.7 hPa NNE 6.4 km/h 9.7 km/h 14% 0 mm 0.0 W/m2
20:29 26 °C -2.6 °C 1010 hPa Calm   1.6 km/h 15% 0 mm 0.0 W/m2
20:50 24.6 °C -2.1 °C 1010 hPa NNE 7.9 km/h 8 km/h 17% 0 mm 0.0 W/m2
21:00 24 °C -2.6 °C 1010 hPa Calm     17% 0 mm 0.0 W/m2
21:22 23.7 °C -2 °C 1010.4 hPa Calm   1.6 km/h 18% 0 mm 0.0 W/m2
21:35 22.6 °C -2.2 °C 1010.4 hPa Calm     19% 0 mm 0.0 W/m2
21:41 22.3 °C -2.4 °C 1010.4 hPa Calm     19% 0 mm 0.0 W/m2
22:02 21.9 °C -2.1 °C 1010.7 hPa Calm     20% 0 mm 0.0 W/m2
22:11 21.7 °C -2.2 °C 1010.7 hPa Calm     20% 0 mm 0.0 W/m2
22:22 21.6 °C -2.3 °C 1010.7 hPa Calm     20% 0 mm 0.0 W/m2
22:30 21.4 °C -2.5 °C 1010.7 hPa Calm     20% 0 mm 0.0 W/m2
22:43 21.6 °C -2.3 °C 1010.7 hPa Calm     20% 0 mm 0.0 W/m2
Canyon Roadhouse, Fishriver Canyon, Namibia
Compliments of Weather Underground - 2.25 mb